Ashland, Montana
Current Conditions -  °F | °C
As of 10:53 AM on Friday 28 Nov 2014 (Local Time) from KMLS Reporting Station
Clear Clear  
Wind Chill:   Ceiling: Unl
Heat Index:   Visibility: 10mi
Dew Point:   Wind: 10mph
Humidity: 70%   Direction: 150°SSE
Pressure: 29.55"   Gusts: NA
Location:  45.62°N, 106.31°W
Report Text: KMLS 281753Z AUTO 15009KT 10SM CLR 06/01 A2955 RMK AO2 SLP018 T00560006 10056 20028 57013
Loading
Personal Weather Stations






























Interactive Weather Map New forecast layout! Learn more

10-Day Weather Forecast

Advertisements
Track Severe Weather on mobile